Accueil
METAR-TAF:

METAR-TAF

Aéroports :

Kwajalein, Îles Marshall

latitude: 08-43N, longitude: 167-44E, altitude: 3 m

Observation

Le bulletin a été fait il y a 5 minutes, à 23:20 UTC
Vent 15 kt de est
Température 28°C
Humidité 89%
Pression 1009 hPa
Visibilité: 16.1 km
Nuages épars à une hauteur de 5500 ft
Nuages épars à une hauteur de 6500 ft
Nuages épars à une hauteur de 10000 ft

METAR: PKWA 232320Z AUTO 10015KT 10SM SCT055 SCT065 SCT100 28/26 A2980 RMK AO2 LTG DSNT S T02760255 PWINO

Heure: 11:25 (23:25 UTC)

Prévision

Le bulletin a été fait il y a 5 heures et 46 minutes, à 17:39 UTC
Prévision valable du 23 à 18 UTC au 24 à 18 UTC
Vent 14 kt de est/nord-est avec des rafales jusqu'à 25 kt
Visibilité: 10 km
Nuages épars à une hauteur de 1800 ft
Nuages épars à une hauteur de 2500 ft
Nuages fragmentés à une hauteur de 12000 ft
averses à proximité

TAF: PKWA 231739Z 2318/2418 07014G25KT P6SM VCSH SCT018 SCT025 BKN120

Observations et prévisions météorologiques de plus de 4000 aéroports (messages METAR et TAF).

Les stations disponibles sont représentées par des disques jaunes et rouges sur la carte.

Passer la souris dessus pour voir le nom de la station.

Cliquer dessus pour voir les observations et prévisions météorologiques.

Pour changer de carte: cliquez sur les boutons verts avec une croix noire pour zoomer, sur le bouton vert avec un tiret pour effectuer un zoom arrière, ou sur les flèches vertes pour les cartes adjacentes.


METAR-TAF: